sensor_id;sensor_type;location;lat;lon;timestamp;temperature;humidity
20364;DHT22;10340;53.664;9.908;2023-03-23T00:02:15;10.80;99.90
20364;DHT22;10340;53.664;9.908;2023-03-23T00:04:42;10.80;99.90
20364;DHT22;10340;53.664;9.908;2023-03-23T00:07:11;10.80;99.90
20364;DHT22;10340;53.664;9.908;2023-03-23T00:09:46;10.70;99.90
20364;DHT22;10340;53.664;9.908;2023-03-23T00:12:19;10.70;99.90
20364;DHT22;10340;53.664;9.908;2023-03-23T00:14:46;10.80;99.90
20364;DHT22;10340;53.664;9.908;2023-03-23T00:17:13;10.80;99.90
20364;DHT22;10340;53.664;9.908;2023-03-23T00:19:40;10.70;99.90
20364;DHT22;10340;53.664;9.908;2023-03-23T00:22:14;10.70;99.90
20364;DHT22;10340;53.664;9.908;2023-03-23T00:24:42;10.70;99.90
20364;DHT22;10340;53.664;9.908;2023-03-23T00:27:09;10.70;99.90
20364;DHT22;10340;53.664;9.908;2023-03-23T00:29:38;10.70;99.90
20364;DHT22;10340;53.664;9.908;2023-03-23T00:32:06;10.60;99.90
20364;DHT22;10340;53.664;9.908;2023-03-23T00:34:38;10.60;99.90
20364;DHT22;10340;53.664;9.908;2023-03-23T00:37:07;10.60;99.90
20364;DHT22;10340;53.664;9.908;2023-03-23T00:39:35;10.60;99.90
20364;DHT22;10340;53.664;9.908;2023-03-23T00:42:04;10.50;99.90
20364;DHT22;10340;53.664;9.908;2023-03-23T00:44:32;10.60;99.90
20364;DHT22;10340;53.664;9.908;2023-03-23T00:47:02;10.60;99.90
20364;DHT22;10340;53.664;9.908;2023-03-23T00:49:30;10.60;99.90
20364;DHT22;10340;53.664;9.908;2023-03-23T00:52:00;10.60;99.90
20364;DHT22;10340;53.664;9.908;2023-03-23T00:54:28;10.60;99.90
20364;DHT22;10340;53.664;9.908;2023-03-23T00:56:56;10.70;99.90
20364;DHT22;10340;53.664;9.908;2023-03-23T00:59:23;10.70;99.90
20364;DHT22;10340;53.664;9.908;2023-03-23T01:01:51;10.70;99.90
20364;DHT22;10340;53.664;9.908;2023-03-23T01:04:18;10.60;99.90
20364;DHT22;10340;53.664;9.908;2023-03-23T01:06:49;10.60;99.90
20364;DHT22;10340;53.664;9.908;2023-03-23T01:09:17;10.60;99.90
20364;DHT22;10340;53.664;9.908;2023-03-23T01:11:45;10.70;99.90
20364;DHT22;10340;53.664;9.908;2023-03-23T01:14:16;10.60;99.90
20364;DHT22;10340;53.664;9.908;2023-03-23T01:16:43;10.60;99.90
20364;DHT22;10340;53.664;9.908;2023-03-23T01:19:10;10.60;99.90
20364;DHT22;10340;53.664;9.908;2023-03-23T01:21:38;10.60;99.90
20364;DHT22;10340;53.664;9.908;2023-03-23T01:24:05;10.60;99.90
20364;DHT22;10340;53.664;9.908;2023-03-23T01:26:33;10.60;99.90
20364;DHT22;10340;53.664;9.908;2023-03-23T01:29:00;10.70;99.90
20364;DHT22;10340;53.664;9.908;2023-03-23T01:31:28;10.60;99.90
20364;DHT22;10340;53.664;9.908;2023-03-23T01:33:55;10.70;99.90
20364;DHT22;10340;53.664;9.908;2023-03-23T01:36:24;10.70;99.90
20364;DHT22;10340;53.664;9.908;2023-03-23T01:38:52;10.70;99.90
20364;DHT22;10340;53.664;9.908;2023-03-23T01:41:20;10.70;99.90
20364;DHT22;10340;53.664;9.908;2023-03-23T01:43:58;10.70;99.90
20364;DHT22;10340;53.664;9.908;2023-03-23T01:46:30;10.70;99.90
20364;DHT22;10340;53.664;9.908;2023-03-23T01:49:00;10.70;99.90
20364;DHT22;10340;53.664;9.908;2023-03-23T01:51:34;10.70;99.90
20364;DHT22;10340;53.664;9.908;2023-03-23T01:54:04;10.70;99.90
20364;DHT22;10340;53.664;9.908;2023-03-23T01:56:36;10.70;99.90
20364;DHT22;10340;53.664;9.908;2023-03-23T01:59:07;10.70;99.90
20364;DHT22;10340;53.664;9.908;2023-03-23T02:01:35;10.80;99.90
20364;DHT22;10340;53.664;9.908;2023-03-23T02:04:05;10.80;99.90
20364;DHT22;10340;53.664;9.908;2023-03-23T02:06:33;10.80;99.90
20364;DHT22;10340;53.664;9.908;2023-03-23T02:09:01;10.80;99.90
20364;DHT22;10340;53.664;9.908;2023-03-23T02:11:29;10.80;99.90
20364;DHT22;10340;53.664;9.908;2023-03-23T02:13:56;10.80;99.90
20364;DHT22;10340;53.664;9.908;2023-03-23T02:16:32;10.90;99.90
20364;DHT22;10340;53.664;9.908;2023-03-23T02:19:13;10.80;99.90
20364;DHT22;10340;53.664;9.908;2023-03-23T02:22:02;10.80;99.90
20364;DHT22;10340;53.664;9.908;2023-03-23T02:24:55;10.70;99.90
20364;DHT22;10340;53.664;9.908;2023-03-23T02:27:48;10.70;99.90
20364;DHT22;10340;53.664;9.908;2023-03-23T02:30:30;10.70;99.90
20364;DHT22;10340;53.664;9.908;2023-03-23T02:33:22;10.70;99.90
20364;DHT22;10340;53.664;9.908;2023-03-23T02:35:58;10.70;99.90
20364;DHT22;10340;53.664;9.908;2023-03-23T02:38:31;10.70;99.90
20364;DHT22;10340;53.664;9.908;2023-03-23T02:41:01;10.70;99.90
20364;DHT22;10340;53.664;9.908;2023-03-23T02:43:33;10.80;99.90
20364;DHT22;10340;53.664;9.908;2023-03-23T02:46:05;10.70;99.90
20364;DHT22;10340;53.664;9.908;2023-03-23T02:48:35;10.80;99.90
20364;DHT22;10340;53.664;9.908;2023-03-23T02:51:04;10.70;99.90
20364;DHT22;10340;53.664;9.908;2023-03-23T02:53:34;10.70;99.90
20364;DHT22;10340;53.664;9.908;2023-03-23T02:56:03;10.70;99.90
20364;DHT22;10340;53.664;9.908;2023-03-23T02:58:33;10.70;99.90
20364;DHT22;10340;53.664;9.908;2023-03-23T03:04:03;10.70;99.90
20364;DHT22;10340;53.664;9.908;2023-03-23T03:06:34;10.80;99.90
20364;DHT22;10340;53.664;9.908;2023-03-23T03:09:09;10.80;99.90
20364;DHT22;10340;53.664;9.908;2023-03-23T03:11:39;10.80;99.90
20364;DHT22;10340;53.664;9.908;2023-03-23T03:14:11;10.80;99.90
20364;DHT22;10340;53.664;9.908;2023-03-23T03:16:47;10.80;99.90
20364;DHT22;10340;53.664;9.908;2023-03-23T03:19:21;10.80;99.90
20364;DHT22;10340;53.664;9.908;2023-03-23T03:21:52;10.80;99.90
20364;DHT22;10340;53.664;9.908;2023-03-23T03:24:22;10.80;99.90
20364;DHT22;10340;53.664;9.908;2023-03-23T03:26:54;10.80;99.90
20364;DHT22;10340;53.664;9.908;2023-03-23T03:29:28;10.40;99.90
20364;DHT22;10340;53.664;9.908;2023-03-23T03:31:57;10.80;99.90
20364;DHT22;10340;53.664;9.908;2023-03-23T03:34:26;10.80;99.90
20364;DHT22;10340;53.664;9.908;2023-03-23T03:36:54;10.80;99.90
20364;DHT22;10340;53.664;9.908;2023-03-23T03:39:25;10.80;99.90
20364;DHT22;10340;53.664;9.908;2023-03-23T03:41:52;10.80;99.90
20364;DHT22;10340;53.664;9.908;2023-03-23T03:44:20;10.70;99.90
20364;DHT22;10340;53.664;9.908;2023-03-23T03:46:47;10.70;99.90
20364;DHT22;10340;53.664;9.908;2023-03-23T03:49:14;10.70;99.90
20364;DHT22;10340;53.664;9.908;2023-03-23T03:51:43;10.70;99.90
20364;DHT22;10340;53.664;9.908;2023-03-23T03:54:10;10.80;99.90
20364;DHT22;10340;53.664;9.908;2023-03-23T03:56:37;10.80;99.90
20364;DHT22;10340;53.664;9.908;2023-03-23T03:59:05;10.80;99.90
20364;DHT22;10340;53.664;9.908;2023-03-23T04:01:33;10.80;99.90
20364;DHT22;10340;53.664;9.908;2023-03-23T04:04:00;10.80;99.90
20364;DHT22;10340;53.664;9.908;2023-03-23T04:06:27;10.90;99.90
20364;DHT22;10340;53.664;9.908;2023-03-23T04:08:56;10.90;99.90
20364;DHT22;10340;53.664;9.908;2023-03-23T04:11:25;10.80;99.90
20364;DHT22;10340;53.664;9.908;2023-03-23T04:13:52;10.80;99.90
20364;DHT22;10340;53.664;9.908;2023-03-23T04:16:19;10.90;99.90
20364;DHT22;10340;53.664;9.908;2023-03-23T04:18:46;10.80;99.90
20364;DHT22;10340;53.664;9.908;2023-03-23T04:21:14;10.90;99.90
20364;DHT22;10340;53.664;9.908;2023-03-23T04:23:41;10.90;99.90
20364;DHT22;10340;53.664;9.908;2023-03-23T04:26:09;11.00;99.90
20364;DHT22;10340;53.664;9.908;2023-03-23T04:28:38;10.90;99.90
20364;DHT22;10340;53.664;9.908;2023-03-23T04:31:06;11.00;99.90
20364;DHT22;10340;53.664;9.908;2023-03-23T04:33:34;10.90;99.90
20364;DHT22;10340;53.664;9.908;2023-03-23T04:36:03;11.00;99.90
20364;DHT22;10340;53.664;9.908;2023-03-23T04:38:32;11.00;99.90
20364;DHT22;10340;53.664;9.908;2023-03-23T04:41:00;11.00;99.90
20364;DHT22;10340;53.664;9.908;2023-03-23T04:43:29;11.00;99.90
20364;DHT22;10340;53.664;9.908;2023-03-23T04:45:59;11.00;99.90
20364;DHT22;10340;53.664;9.908;2023-03-23T04:48:29;11.00;99.90
20364;DHT22;10340;53.664;9.908;2023-03-23T04:51:00;11.00;99.90
20364;DHT22;10340;53.664;9.908;2023-03-23T04:53:28;11.00;99.90
20364;DHT22;10340;53.664;9.908;2023-03-23T04:55:55;11.00;99.90
20364;DHT22;10340;53.664;9.908;2023-03-23T04:58:22;10.90;99.90
20364;DHT22;10340;53.664;9.908;2023-03-23T05:00:51;10.90;99.90
20364;DHT22;10340;53.664;9.908;2023-03-23T05:03:19;10.90;99.90
20364;DHT22;10340;53.664;9.908;2023-03-23T05:05:46;10.90;99.90
20364;DHT22;10340;53.664;9.908;2023-03-23T05:08:17;10.90;99.90
20364;DHT22;10340;53.664;9.908;2023-03-23T05:10:50;10.80;99.90
20364;DHT22;10340;53.664;9.908;2023-03-23T05:13:18;10.90;99.90
20364;DHT22;10340;53.664;9.908;2023-03-23T05:15:45;10.90;99.90
20364;DHT22;10340;53.664;9.908;2023-03-23T05:18:13;10.80;99.90
20364;DHT22;10340;53.664;9.908;2023-03-23T05:20:40;10.90;99.90
20364;DHT22;10340;53.664;9.908;2023-03-23T05:23:08;10.90;99.90
20364;DHT22;10340;53.664;9.908;2023-03-23T05:25:35;11.00;99.90
20364;DHT22;10340;53.664;9.908;2023-03-23T05:28:06;11.00;99.90
20364;DHT22;10340;53.664;9.908;2023-03-23T05:30:33;11.00;99.90
20364;DHT22;10340;53.664;9.908;2023-03-23T05:33:01;11.00;99.90
20364;DHT22;10340;53.664;9.908;2023-03-23T05:35:30;11.00;99.90
20364;DHT22;10340;53.664;9.908;2023-03-23T05:37:57;11.00;99.90
20364;DHT22;10340;53.664;9.908;2023-03-23T05:40:25;11.00;99.90
20364;DHT22;10340;53.664;9.908;2023-03-23T05:42:53;11.00;99.90
20364;DHT22;10340;53.664;9.908;2023-03-23T05:45:21;11.00;99.90
20364;DHT22;10340;53.664;9.908;2023-03-23T05:47:49;11.00;99.90
20364;DHT22;10340;53.664;9.908;2023-03-23T05:50:16;11.00;99.90
20364;DHT22;10340;53.664;9.908;2023-03-23T05:52:45;11.00;99.90
20364;DHT22;10340;53.664;9.908;2023-03-23T05:55:12;11.00;99.90
20364;DHT22;10340;53.664;9.908;2023-03-23T05:57:40;11.00;99.90
20364;DHT22;10340;53.664;9.908;2023-03-23T06:00:09;10.90;99.90
20364;DHT22;10340;53.664;9.908;2023-03-23T06:02:46;11.00;99.90
20364;DHT22;10340;53.664;9.908;2023-03-23T06:05:14;10.90;99.90
20364;DHT22;10340;53.664;9.908;2023-03-23T06:07:41;10.90;99.90
20364;DHT22;10340;53.664;9.908;2023-03-23T06:10:10;11.00;99.90
20364;DHT22;10340;53.664;9.908;2023-03-23T06:12:37;11.00;99.90
20364;DHT22;10340;53.664;9.908;2023-03-23T06:15:06;11.00;99.90
20364;DHT22;10340;53.664;9.908;2023-03-23T06:17:34;10.90;99.90
20364;DHT22;10340;53.664;9.908;2023-03-23T06:20:02;11.00;99.90
20364;DHT22;10340;53.664;9.908;2023-03-23T06:22:35;11.00;99.90
20364;DHT22;10340;53.664;9.908;2023-03-23T06:25:04;11.00;99.90
20364;DHT22;10340;53.664;9.908;2023-03-23T06:27:33;11.00;99.90
20364;DHT22;10340;53.664;9.908;2023-03-23T06:30:01;11.00;99.90
20364;DHT22;10340;53.664;9.908;2023-03-23T06:32:29;11.00;99.90
20364;DHT22;10340;53.664;9.908;2023-03-23T06:34:57;11.00;99.90
20364;DHT22;10340;53.664;9.908;2023-03-23T06:37:24;11.00;99.90
20364;DHT22;10340;53.664;9.908;2023-03-23T06:39:51;11.10;99.90
20364;DHT22;10340;53.664;9.908;2023-03-23T06:42:21;11.10;99.90
20364;DHT22;10340;53.664;9.908;2023-03-23T06:44:51;11.20;99.90
20364;DHT22;10340;53.664;9.908;2023-03-23T06:47:18;11.20;99.90
20364;DHT22;10340;53.664;9.908;2023-03-23T06:49:45;11.30;99.90
20364;DHT22;10340;53.664;9.908;2023-03-23T06:52:12;11.40;99.90
20364;DHT22;10340;53.664;9.908;2023-03-23T06:54:40;11.40;99.90
20364;DHT22;10340;53.664;9.908;2023-03-23T06:57:07;11.50;99.90
20364;DHT22;10340;53.664;9.908;2023-03-23T06:59:35;11.50;99.90
20364;DHT22;10340;53.664;9.908;2023-03-23T07:02:03;11.60;99.90
20364;DHT22;10340;53.664;9.908;2023-03-23T07:04:31;11.60;99.90
20364;DHT22;10340;53.664;9.908;2023-03-23T07:06:58;11.60;99.90
20364;DHT22;10340;53.664;9.908;2023-03-23T07:09:25;11.60;99.90
20364;DHT22;10340;53.664;9.908;2023-03-23T07:11:52;11.70;99.90
20364;DHT22;10340;53.664;9.908;2023-03-23T07:14:19;11.80;99.90
20364;DHT22;10340;53.664;9.908;2023-03-23T07:16:47;11.80;99.90
20364;DHT22;10340;53.664;9.908;2023-03-23T07:19:16;12.00;99.90
20364;DHT22;10340;53.664;9.908;2023-03-23T07:21:43;11.80;99.90
20364;DHT22;10340;53.664;9.908;2023-03-23T07:24:11;11.90;99.90
20364;DHT22;10340;53.664;9.908;2023-03-23T07:26:39;11.90;99.90
20364;DHT22;10340;53.664;9.908;2023-03-23T07:29:07;11.90;99.90
20364;DHT22;10340;53.664;9.908;2023-03-23T07:31:34;11.90;99.90
20364;DHT22;10340;53.664;9.908;2023-03-23T07:34:02;11.90;99.90
20364;DHT22;10340;53.664;9.908;2023-03-23T07:36:30;12.00;99.90
20364;DHT22;10340;53.664;9.908;2023-03-23T07:38:58;11.90;99.90
20364;DHT22;10340;53.664;9.908;2023-03-23T07:41:26;11.90;99.90
20364;DHT22;10340;53.664;9.908;2023-03-23T07:43:54;11.90;99.90
20364;DHT22;10340;53.664;9.908;2023-03-23T07:46:21;11.80;99.90
20364;DHT22;10340;53.664;9.908;2023-03-23T07:48:48;11.80;99.90
20364;DHT22;10340;53.664;9.908;2023-03-23T07:51:15;11.60;99.90
20364;DHT22;10340;53.664;9.908;2023-03-23T07:53:44;11.60;99.90
20364;DHT22;10340;53.664;9.908;2023-03-23T07:56:13;11.10;99.90
20364;DHT22;10340;53.664;9.908;2023-03-23T07:58:40;11.40;99.90
20364;DHT22;10340;53.664;9.908;2023-03-23T08:01:07;11.40;99.90
20364;DHT22;10340;53.664;9.908;2023-03-23T08:03:34;11.10;99.90
20364;DHT22;10340;53.664;9.908;2023-03-23T08:06:03;11.00;99.90
20364;DHT22;10340;53.664;9.908;2023-03-23T08:08:31;10.90;99.90
20364;DHT22;10340;53.664;9.908;2023-03-23T08:11:00;10.70;99.90
20364;DHT22;10340;53.664;9.908;2023-03-23T08:13:27;10.60;99.90
20364;DHT22;10340;53.664;9.908;2023-03-23T08:15:54;10.40;99.90
20364;DHT22;10340;53.664;9.908;2023-03-23T08:18:22;10.40;99.90
20364;DHT22;10340;53.664;9.908;2023-03-23T08:20:50;10.40;99.90
20364;DHT22;10340;53.664;9.908;2023-03-23T08:23:19;10.40;99.90
20364;DHT22;10340;53.664;9.908;2023-03-23T08:25:47;10.40;99.90
20364;DHT22;10340;53.664;9.908;2023-03-23T08:28:16;10.30;99.90
20364;DHT22;10340;53.664;9.908;2023-03-23T08:30:43;10.40;99.90
20364;DHT22;10340;53.664;9.908;2023-03-23T08:33:10;10.40;99.90
20364;DHT22;10340;53.664;9.908;2023-03-23T08:35:37;10.50;99.90
20364;DHT22;10340;53.664;9.908;2023-03-23T08:38:05;10.50;99.90
20364;DHT22;10340;53.664;9.908;2023-03-23T08:40:32;10.60;99.90
20364;DHT22;10340;53.664;9.908;2023-03-23T08:42:59;10.60;99.90
20364;DHT22;10340;53.664;9.908;2023-03-23T08:45:27;10.70;99.90
20364;DHT22;10340;53.664;9.908;2023-03-23T08:47:55;10.80;99.90
20364;DHT22;10340;53.664;9.908;2023-03-23T08:50:24;10.90;99.90
20364;DHT22;10340;53.664;9.908;2023-03-23T08:52:51;10.90;99.90
20364;DHT22;10340;53.664;9.908;2023-03-23T08:55:19;11.00;99.90
20364;DHT22;10340;53.664;9.908;2023-03-23T08:57:47;11.30;99.90
20364;DHT22;10340;53.664;9.908;2023-03-23T09:00:17;11.20;99.90
20364;DHT22;10340;53.664;9.908;2023-03-23T09:02:47;11.30;99.90
20364;DHT22;10340;53.664;9.908;2023-03-23T09:05:15;11.40;99.90
20364;DHT22;10340;53.664;9.908;2023-03-23T09:07:45;11.40;99.90
20364;DHT22;10340;53.664;9.908;2023-03-23T09:10:14;11.40;99.90
20364;DHT22;10340;53.664;9.908;2023-03-23T09:12:42;11.60;99.90
20364;DHT22;10340;53.664;9.908;2023-03-23T09:15:12;11.60;99.90
20364;DHT22;10340;53.664;9.908;2023-03-23T09:17:42;11.60;99.90
20364;DHT22;10340;53.664;9.908;2023-03-23T09:20:13;11.60;99.90
20364;DHT22;10340;53.664;9.908;2023-03-23T09:22:41;11.60;99.90
20364;DHT22;10340;53.664;9.908;2023-03-23T09:25:10;11.70;99.90
20364;DHT22;10340;53.664;9.908;2023-03-23T09:27:38;11.80;99.90
20364;DHT22;10340;53.664;9.908;2023-03-23T09:30:08;11.90;99.90
20364;DHT22;10340;53.664;9.908;2023-03-23T09:32:36;12.00;99.90
20364;DHT22;10340;53.664;9.908;2023-03-23T09:35:06;11.90;99.90
20364;DHT22;10340;53.664;9.908;2023-03-23T09:37:37;11.90;99.90
20364;DHT22;10340;53.664;9.908;2023-03-23T09:40:06;12.10;99.90
20364;DHT22;10340;53.664;9.908;2023-03-23T09:42:43;12.30;99.90
20364;DHT22;10340;53.664;9.908;2023-03-23T09:45:21;12.30;99.90
20364;DHT22;10340;53.664;9.908;2023-03-23T09:51:00;12.50;99.90
20364;DHT22;10340;53.664;9.908;2023-03-23T09:53:34;12.70;99.90
20364;DHT22;10340;53.664;9.908;2023-03-23T09:56:09;12.80;99.90
20364;DHT22;10340;53.664;9.908;2023-03-23T09:58:45;13.20;99.90
20364;DHT22;10340;53.664;9.908;2023-03-23T10:01:19;13.00;99.90
20364;DHT22;10340;53.664;9.908;2023-03-23T10:03:46;13.10;99.90
20364;DHT22;10340;53.664;9.908;2023-03-23T10:06:17;13.20;99.90
20364;DHT22;10340;53.664;9.908;2023-03-23T10:08:48;13.20;99.90
20364;DHT22;10340;53.664;9.908;2023-03-23T10:11:26;13.20;99.90
20364;DHT22;10340;53.664;9.908;2023-03-23T10:14:12;13.40;99.90
20364;DHT22;10340;53.664;9.908;2023-03-23T10:16:55;13.60;99.90
20364;DHT22;10340;53.664;9.908;2023-03-23T10:19:38;13.70;99.90
20364;DHT22;10340;53.664;9.908;2023-03-23T10:22:10;13.80;99.90
20364;DHT22;10340;53.664;9.908;2023-03-23T10:24:44;14.20;99.90
20364;DHT22;10340;53.664;9.908;2023-03-23T10:27:19;14.00;99.90
20364;DHT22;10340;53.664;9.908;2023-03-23T10:29:53;14.10;99.90
20364;DHT22;10340;53.664;9.908;2023-03-23T10:32:37;14.20;99.90
20364;DHT22;10340;53.664;9.908;2023-03-23T10:35:10;14.20;99.90
20364;DHT22;10340;53.664;9.908;2023-03-23T10:37:43;14.10;99.90
20364;DHT22;10340;53.664;9.908;2023-03-23T10:40:16;14.00;99.90
20364;DHT22;10340;53.664;9.908;2023-03-23T10:42:45;14.00;99.90
20364;DHT22;10340;53.664;9.908;2023-03-23T10:45:17;14.00;99.90
20364;DHT22;10340;53.664;9.908;2023-03-23T10:47:49;13.90;99.90
20364;DHT22;10340;53.664;9.908;2023-03-23T10:50:26;13.90;99.90
20364;DHT22;10340;53.664;9.908;2023-03-23T10:52:56;13.90;99.90
20364;DHT22;10340;53.664;9.908;2023-03-23T10:55:36;13.90;99.90
20364;DHT22;10340;53.664;9.908;2023-03-23T10:58:06;13.80;99.90
20364;DHT22;10340;53.664;9.908;2023-03-23T11:00:40;13.80;99.90
20364;DHT22;10340;53.664;9.908;2023-03-23T11:03:24;13.80;99.90
20364;DHT22;10340;53.664;9.908;2023-03-23T11:05:55;13.80;99.90
20364;DHT22;10340;53.664;9.908;2023-03-23T11:08:25;13.80;99.90
20364;DHT22;10340;53.664;9.908;2023-03-23T11:10:57;13.80;99.90
20364;DHT22;10340;53.664;9.908;2023-03-23T11:13:30;13.80;99.90
20364;DHT22;10340;53.664;9.908;2023-03-23T11:15:58;13.80;99.90
20364;DHT22;10340;53.664;9.908;2023-03-23T11:18:34;13.60;99.90
20364;DHT22;10340;53.664;9.908;2023-03-23T11:21:02;13.70;99.90
20364;DHT22;10340;53.664;9.908;2023-03-23T11:23:32;13.70;99.90
20364;DHT22;10340;53.664;9.908;2023-03-23T11:26:08;13.70;99.90
20364;DHT22;10340;53.664;9.908;2023-03-23T11:28:37;13.70;99.90
20364;DHT22;10340;53.664;9.908;2023-03-23T11:31:06;13.80;99.90
20364;DHT22;10340;53.664;9.908;2023-03-23T11:33:38;13.80;99.90
20364;DHT22;10340;53.664;9.908;2023-03-23T11:36:06;13.90;99.90
20364;DHT22;10340;53.664;9.908;2023-03-23T11:38:35;14.10;99.90
20364;DHT22;10340;53.664;9.908;2023-03-23T11:41:09;14.10;99.90
20364;DHT22;10340;53.664;9.908;2023-03-23T11:43:41;14.10;99.90
20364;DHT22;10340;53.664;9.908;2023-03-23T11:46:30;14.30;99.90
20364;DHT22;10340;53.664;9.908;2023-03-23T11:49:02;14.30;99.90
20364;DHT22;10340;53.664;9.908;2023-03-23T11:51:34;14.30;99.90
20364;DHT22;10340;53.664;9.908;2023-03-23T11:54:09;14.40;99.90
20364;DHT22;10340;53.664;9.908;2023-03-23T11:56:43;14.40;99.90
20364;DHT22;10340;53.664;9.908;2023-03-23T11:59:13;14.50;99.90
20364;DHT22;10340;53.664;9.908;2023-03-23T12:01:47;14.40;99.90
20364;DHT22;10340;53.664;9.908;2023-03-23T12:04:33;14.40;99.90
20364;DHT22;10340;53.664;9.908;2023-03-23T12:07:14;14.20;99.90
20364;DHT22;10340;53.664;9.908;2023-03-23T12:10:03;14.10;99.90
20364;DHT22;10340;53.664;9.908;2023-03-23T12:12:40;14.00;99.90
20364;DHT22;10340;53.664;9.908;2023-03-23T12:15:17;14.00;99.90
20364;DHT22;10340;53.664;9.908;2023-03-23T12:17:53;13.90;99.90
20364;DHT22;10340;53.664;9.908;2023-03-23T12:20:31;13.90;99.90
20364;DHT22;10340;53.664;9.908;2023-03-23T12:23:20;13.90;99.90
20364;DHT22;10340;53.664;9.908;2023-03-23T12:26:19;13.80;99.90
20364;DHT22;10340;53.664;9.908;2023-03-23T12:29:19;13.80;99.90
20364;DHT22;10340;53.664;9.908;2023-03-23T12:32:01;13.80;99.90
20364;DHT22;10340;53.664;9.908;2023-03-23T12:34:39;13.90;99.90
20364;DHT22;10340;53.664;9.908;2023-03-23T12:37:35;14.10;99.90
20364;DHT22;10340;53.664;9.908;2023-03-23T12:40:23;14.00;99.90
20364;DHT22;10340;53.664;9.908;2023-03-23T12:42:58;14.20;99.90
20364;DHT22;10340;53.664;9.908;2023-03-23T12:45:49;14.20;99.90
20364;DHT22;10340;53.664;9.908;2023-03-23T12:48:22;14.30;99.90
20364;DHT22;10340;53.664;9.908;2023-03-23T12:51:14;14.30;99.90
20364;DHT22;10340;53.664;9.908;2023-03-23T12:53:49;14.30;99.90
20364;DHT22;10340;53.664;9.908;2023-03-23T12:56:22;14.40;99.90
20364;DHT22;10340;53.664;9.908;2023-03-23T12:58:53;14.40;99.90
20364;DHT22;10340;53.664;9.908;2023-03-23T13:01:26;14.40;99.90
20364;DHT22;10340;53.664;9.908;2023-03-23T13:03:57;14.30;99.90
20364;DHT22;10340;53.664;9.908;2023-03-23T13:06:35;14.10;99.90
20364;DHT22;10340;53.664;9.908;2023-03-23T13:09:05;14.10;99.90
20364;DHT22;10340;53.664;9.908;2023-03-23T13:11:35;14.10;99.90
20364;DHT22;10340;53.664;9.908;2023-03-23T13:14:14;14.20;99.90
20364;DHT22;10340;53.664;9.908;2023-03-23T13:16:52;14.30;99.90
20364;DHT22;10340;53.664;9.908;2023-03-23T13:19:25;14.50;99.90
20364;DHT22;10340;53.664;9.908;2023-03-23T13:21:59;14.40;99.90
20364;DHT22;10340;53.664;9.908;2023-03-23T13:24:30;14.40;99.90
20364;DHT22;10340;53.664;9.908;2023-03-23T13:26:59;14.40;99.90
20364;DHT22;10340;53.664;9.908;2023-03-23T13:29:27;14.30;99.90
20364;DHT22;10340;53.664;9.908;2023-03-23T13:32:09;14.20;99.90
20364;DHT22;10340;53.664;9.908;2023-03-23T13:34:38;14.00;99.90
20364;DHT22;10340;53.664;9.908;2023-03-23T13:37:10;13.90;99.90
20364;DHT22;10340;53.664;9.908;2023-03-23T13:39:48;13.80;99.90
20364;DHT22;10340;53.664;9.908;2023-03-23T13:42:20;13.50;99.90
20364;DHT22;10340;53.664;9.908;2023-03-23T13:45:18;13.20;99.90
20364;DHT22;10340;53.664;9.908;2023-03-23T13:47:48;12.80;99.90
20364;DHT22;10340;53.664;9.908;2023-03-23T13:50:26;12.30;99.90
20364;DHT22;10340;53.664;9.908;2023-03-23T13:52:59;11.80;99.90
20364;DHT22;10340;53.664;9.908;2023-03-23T13:55:40;11.30;99.90
20364;DHT22;10340;53.664;9.908;2023-03-23T13:58:21;10.80;99.90
20364;DHT22;10340;53.664;9.908;2023-03-23T14:01:00;10.40;99.90
20364;DHT22;10340;53.664;9.908;2023-03-23T14:03:36;10.20;99.90
20364;DHT22;10340;53.664;9.908;2023-03-23T14:06:07;10.30;99.90
20364;DHT22;10340;53.664;9.908;2023-03-23T14:08:40;10.10;99.90
20364;DHT22;10340;53.664;9.908;2023-03-23T14:11:14;10.20;99.90
20364;DHT22;10340;53.664;9.908;2023-03-23T14:13:46;10.30;99.90
20364;DHT22;10340;53.664;9.908;2023-03-23T14:16:17;10.50;99.90
20364;DHT22;10340;53.664;9.908;2023-03-23T14:18:52;10.50;99.90
20364;DHT22;10340;53.664;9.908;2023-03-23T14:21:31;10.70;99.90
20364;DHT22;10340;53.664;9.908;2023-03-23T14:24:03;10.70;99.90
20364;DHT22;10340;53.664;9.908;2023-03-23T14:26:33;11.10;99.90
20364;DHT22;10340;53.664;9.908;2023-03-23T14:29:04;11.30;99.90
20364;DHT22;10340;53.664;9.908;2023-03-23T14:31:31;11.50;99.90
20364;DHT22;10340;53.664;9.908;2023-03-23T14:34:03;11.70;99.90
20364;DHT22;10340;53.664;9.908;2023-03-23T14:36:32;11.80;99.90
20364;DHT22;10340;53.664;9.908;2023-03-23T14:39:04;12.10;99.90
20364;DHT22;10340;53.664;9.908;2023-03-23T14:41:34;12.10;99.90
20364;DHT22;10340;53.664;9.908;2023-03-23T14:44:03;12.10;99.90
20364;DHT22;10340;53.664;9.908;2023-03-23T14:46:33;12.10;99.90
20364;DHT22;10340;53.664;9.908;2023-03-23T14:49:03;12.30;99.90
20364;DHT22;10340;53.664;9.908;2023-03-23T14:51:31;12.30;99.90
20364;DHT22;10340;53.664;9.908;2023-03-23T14:53:59;12.40;99.90
20364;DHT22;10340;53.664;9.908;2023-03-23T14:56:34;12.40;99.90
20364;DHT22;10340;53.664;9.908;2023-03-23T14:59:05;12.60;99.90
20364;DHT22;10340;53.664;9.908;2023-03-23T15:01:36;12.70;99.90
20364;DHT22;10340;53.664;9.908;2023-03-23T15:04:08;12.70;99.90
20364;DHT22;10340;53.664;9.908;2023-03-23T15:06:37;12.80;99.90
20364;DHT22;10340;53.664;9.908;2023-03-23T15:09:10;12.70;99.90
20364;DHT22;10340;53.664;9.908;2023-03-23T15:11:39;12.60;99.90
20364;DHT22;10340;53.664;9.908;2023-03-23T15:14:10;12.50;99.90
20364;DHT22;10340;53.664;9.908;2023-03-23T15:16:40;12.50;99.90
20364;DHT22;10340;53.664;9.908;2023-03-23T15:19:16;12.40;99.90
20364;DHT22;10340;53.664;9.908;2023-03-23T15:21:50;12.40;99.90
20364;DHT22;10340;53.664;9.908;2023-03-23T15:24:31;12.40;99.90
20364;DHT22;10340;53.664;9.908;2023-03-23T15:27:10;12.40;99.90
20364;DHT22;10340;53.664;9.908;2023-03-23T15:29:47;12.40;99.90
20364;DHT22;10340;53.664;9.908;2023-03-23T15:32:24;12.50;99.90
20364;DHT22;10340;53.664;9.908;2023-03-23T15:34:53;12.50;99.90
20364;DHT22;10340;53.664;9.908;2023-03-23T15:37:24;12.70;99.90
20364;DHT22;10340;53.664;9.908;2023-03-23T15:39:52;12.70;99.90
20364;DHT22;10340;53.664;9.908;2023-03-23T15:42:22;12.60;99.90
20364;DHT22;10340;53.664;9.908;2023-03-23T15:47:47;12.30;99.90
20364;DHT22;10340;53.664;9.908;2023-03-23T15:50:18;12.20;99.90
20364;DHT22;10340;53.664;9.908;2023-03-23T15:52:47;12.10;99.90
20364;DHT22;10340;53.664;9.908;2023-03-23T15:55:22;12.00;99.90
20364;DHT22;10340;53.664;9.908;2023-03-23T15:57:50;12.10;99.90
20364;DHT22;10340;53.664;9.908;2023-03-23T16:00:19;11.90;99.90
20364;DHT22;10340;53.664;9.908;2023-03-23T16:02:52;11.90;99.90
20364;DHT22;10340;53.664;9.908;2023-03-23T16:05:21;11.80;99.90